createdAt,value
2022-12-25T00:01:56.262Z,51.70
2022-12-25T00:04:58.667Z,49.72
2022-12-25T00:08:00.986Z,45.05
2022-12-25T00:11:09.440Z,45.60
2022-12-25T00:14:11.797Z,46.15
2022-12-25T00:17:14.555Z,51.80
2022-12-25T00:20:17.225Z,55.05
2022-12-25T00:23:19.572Z,47.05
2022-12-25T00:26:22.120Z,52.85
2022-12-25T00:29:24.363Z,49.35
2022-12-25T00:32:27.868Z,36.83
2022-12-25T00:35:30.291Z,55.20
2022-12-25T00:38:33.696Z,56.35
2022-12-25T00:41:54.807Z,43.33
2022-12-25T00:44:57.107Z,62.03
2022-12-25T00:47:59.624Z,59.20
2022-12-25T00:51:04.307Z,64.40
2022-12-25T00:54:06.659Z,60.85
2022-12-25T00:57:09.064Z,68.43
2022-12-25T01:00:12.233Z,66.75
2022-12-25T01:03:14.813Z,53.13
2022-12-25T01:06:17.377Z,70.45
2022-12-25T01:09:38.495Z,62.40
2022-12-25T01:12:42.377Z,77.78
2022-12-25T01:15:44.714Z,58.35
2022-12-25T01:18:47.048Z,60.85
2022-12-25T01:21:49.485Z,58.67
2022-12-25T01:24:52.184Z,66.95
2022-12-25T01:27:54.623Z,54.42
2022-12-25T01:30:57.099Z,54.92
2022-12-25T01:33:59.367Z,72.65
2022-12-25T01:37:01.790Z,67.57
2022-12-25T01:40:05.198Z,60.88
2022-12-25T01:43:18.864Z,49.17
2022-12-25T01:46:21.286Z,49.42
2022-12-25T01:49:25.329Z,65.72
2022-12-25T01:55:31.023Z,64.68
2022-12-25T01:58:33.473Z,54.78
2022-12-25T02:01:36.395Z,60.63
2022-12-25T02:04:46.713Z,54.35
2022-12-25T02:07:49.416Z,54.28
2022-12-25T02:10:51.768Z,65.22
2022-12-25T02:13:54.220Z,55.30
2022-12-25T02:17:35.190Z,44.90
2022-12-25T02:20:44.307Z,54.72
2022-12-25T02:24:30.017Z,49.33
2022-12-25T02:27:38.316Z,47.85
2022-12-25T02:31:02.228Z,52.15
2022-12-25T02:34:27.106Z,43.38
2022-12-25T02:37:53.343Z,45.92
2022-12-25T02:40:58.652Z,49.55
2022-12-25T02:44:21.560Z,42.92
2022-12-25T02:47:54.283Z,53.60
2022-12-25T02:51:16.336Z,53.88
2022-12-25T02:54:41.842Z,59.33
2022-12-25T02:58:06.783Z,54.70
2022-12-25T03:01:54.682Z,42.38
2022-12-25T03:05:17.402Z,46.75
2022-12-25T03:08:27.907Z,50.60
2022-12-25T03:11:33.396Z,49.78
2022-12-25T03:14:54.320Z,60.78
2022-12-25T03:17:59.257Z,47.42
2022-12-25T03:21:21.885Z,53.30
2022-12-25T03:24:42.842Z,58.28
2022-12-25T03:27:47.523Z,52.42
2022-12-25T03:31:14.134Z,62.22
2022-12-25T03:34:43.363Z,45.72
2022-12-25T03:38:13.187Z,59.45
2022-12-25T03:41:49.174Z,50.17
2022-12-25T03:45:25.267Z,55.90
2022-12-25T03:48:47.281Z,61.78
2022-12-25T03:52:08.353Z,49.60
2022-12-25T03:55:30.691Z,45.75
2022-12-25T03:58:52.751Z,51.53
2022-12-25T04:02:14.057Z,58.20
2022-12-25T04:05:35.307Z,66.25
2022-12-25T04:08:56.659Z,57.67
2022-12-25T04:12:17.705Z,46.78
2022-12-25T04:15:38.864Z,48.58
2022-12-25T04:18:59.831Z,43.10
2022-12-25T04:22:21.569Z,41.28
2022-12-25T04:25:42.742Z,47.63
2022-12-25T04:29:03.900Z,48.53
2022-12-25T04:32:25.653Z,46.72
2022-12-25T04:35:46.699Z,46.20
2022-12-25T04:38:49.105Z,49.33
2022-12-25T04:41:51.532Z,63.65
2022-12-25T04:44:53.859Z,53.25
2022-12-25T04:47:56.284Z,114.70
2022-12-25T04:50:58.737Z,64.10
2022-12-25T04:54:01.141Z,53.25
2022-12-25T04:57:03.462Z,59.67
2022-12-25T05:00:06.811Z,57.03
2022-12-25T05:03:09.225Z,48.10
2022-12-25T05:06:11.743Z,57.72
2022-12-25T05:09:14.133Z,53.72
2022-12-25T05:12:16.514Z,69.18
2022-12-25T05:15:19.074Z,69.97
2022-12-25T05:18:21.636Z,62.88
2022-12-25T05:21:24.050Z,63.67
2022-12-25T05:24:27.953Z,104.90
2022-12-25T05:30:32.954Z,55.25
2022-12-25T05:33:35.580Z,65.90
2022-12-25T05:36:39.494Z,193.77
2022-12-25T05:39:42.278Z,77.38
2022-12-25T05:42:44.697Z,76.80
2022-12-25T05:45:47.094Z,75.57
2022-12-25T05:48:49.549Z,62.53
2022-12-25T05:51:51.934Z,62.65
2022-12-25T05:54:54.226Z,67.22
2022-12-25T05:57:56.499Z,60.72
2022-12-25T06:00:59.151Z,53.92
2022-12-25T06:04:03.613Z,54.38
2022-12-25T06:07:09.337Z,56.05
2022-12-25T06:10:11.693Z,49.17
2022-12-25T06:13:14.337Z,49.80
2022-12-25T06:16:16.911Z,49.10
2022-12-25T06:19:22.654Z,44.78
2022-12-25T06:22:29.766Z,42.85
2022-12-25T06:25:32.589Z,53.25
2022-12-25T06:28:35.489Z,64.93
2022-12-25T06:31:37.953Z,60.33
2022-12-25T06:34:40.348Z,61.28
2022-12-25T06:37:42.873Z,44.55
2022-12-25T06:40:45.318Z,41.63
2022-12-25T06:43:51.823Z,38.33
2022-12-25T06:46:54.747Z,41.30
2022-12-25T06:49:57.076Z,40.55
2022-12-25T06:52:59.360Z,48.22
2022-12-25T06:56:16.027Z,45.22
2022-12-25T06:59:18.351Z,44.22
2022-12-25T07:02:22.882Z,45.47
2022-12-25T07:05:25.296Z,43.30
2022-12-25T07:08:27.552Z,39.75
2022-12-25T07:11:29.960Z,43.67
2022-12-25T07:14:32.264Z,45.17
2022-12-25T07:17:36.233Z,39.45
2022-12-25T07:23:52.768Z,45.22
2022-12-25T07:27:00.915Z,49.70
2022-12-25T07:30:10.469Z,51.35
2022-12-25T07:33:14.187Z,62.60
2022-12-25T07:36:16.523Z,70.38
2022-12-25T07:39:18.978Z,56.75
2022-12-25T07:42:25.171Z,80.95
2022-12-25T07:45:29.980Z,60.63
2022-12-25T07:48:32.826Z,124.57
2022-12-25T07:51:35.358Z,110.78
2022-12-25T07:54:37.743Z,114.18
2022-12-25T07:57:40.448Z,170.32
2022-12-25T08:00:42.829Z,132.90
2022-12-25T08:03:49.840Z,79.80
2022-12-25T08:06:52.206Z,57.60
2022-12-25T08:09:54.568Z,73.68
2022-12-25T08:12:57.263Z,51.28
2022-12-25T08:16:01.114Z,81.78
2022-12-25T08:19:03.728Z,81.30
2022-12-25T08:22:06.343Z,78.40
2022-12-25T08:25:09.287Z,63.60
2022-12-25T08:28:11.813Z,59.42
2022-12-25T08:31:18.256Z,100.43
2022-12-25T08:34:20.675Z,54.70
2022-12-25T08:37:23.087Z,39.17
2022-12-25T08:40:25.892Z,37.35
2022-12-25T08:43:28.251Z,33.80
2022-12-25T08:46:30.746Z,38.38
2022-12-25T08:49:33.230Z,36.40
2022-12-25T08:52:36.116Z,39.63
2022-12-25T08:55:38.472Z,41.08
2022-12-25T08:58:41.129Z,47.75
2022-12-25T09:01:43.877Z,49.95
2022-12-25T09:04:47.268Z,54.35
2022-12-25T09:07:49.831Z,39.22
2022-12-25T09:10:52.196Z,42.83
2022-12-25T09:13:54.645Z,73.38
2022-12-25T09:16:57.038Z,55.72
2022-12-25T09:19:59.632Z,55.47
2022-12-25T09:23:01.972Z,48.13
2022-12-25T09:26:08.735Z,56.28
2022-12-25T09:29:14.577Z,59.20
2022-12-25T09:32:19.384Z,50.47
2022-12-25T09:35:23.892Z,62.35
2022-12-25T09:38:27.476Z,45.67
2022-12-25T09:42:02.595Z,54.70
2022-12-25T09:45:13.816Z,55.90
2022-12-25T09:48:16.946Z,61.00
2022-12-25T09:51:20.091Z,56.20
2022-12-25T09:54:29.108Z,47.83
2022-12-25T09:57:31.403Z,47.33
2022-12-25T10:00:44.393Z,37.92
2022-12-25T10:03:55.632Z,36.88
2022-12-25T10:07:14.618Z,38.65
2022-12-25T10:10:28.899Z,67.32
2022-12-25T10:17:07.506Z,44.97
2022-12-25T10:20:15.671Z,44.45
2022-12-25T10:23:42.573Z,36.60
2022-12-25T10:26:45.736Z,31.73
2022-12-25T10:29:50.837Z,37.17
2022-12-25T10:32:53.892Z,36.05
2022-12-25T10:35:56.431Z,28.13
2022-12-25T10:38:59.067Z,36.92
2022-12-25T10:42:37.987Z,42.33
2022-12-25T10:45:47.576Z,37.83
2022-12-25T10:48:52.797Z,37.75
2022-12-25T10:51:55.156Z,43.78
2022-12-25T10:54:57.716Z,47.35
2022-12-25T10:58:02.757Z,50.72
2022-12-25T11:01:08.741Z,52.10
2022-12-25T11:04:20.263Z,40.05
2022-12-25T11:07:26.869Z,42.25
2022-12-25T11:10:32.080Z,46.30
2022-12-25T11:13:40.849Z,38.38
2022-12-25T11:16:43.335Z,40.95
2022-12-25T11:19:53.111Z,35.47
2022-12-25T11:22:55.753Z,35.03
2022-12-25T11:25:58.897Z,36.55
2022-12-25T11:29:01.546Z,32.97
2022-12-25T11:32:06.273Z,40.08
2022-12-25T11:35:14.458Z,42.58
2022-12-25T11:38:16.898Z,46.80
2022-12-25T11:41:20.903Z,48.83
2022-12-25T11:44:40.760Z,45.30
2022-12-25T11:47:49.763Z,34.85
2022-12-25T11:50:58.832Z,43.13
2022-12-25T11:54:19.739Z,43.17
2022-12-25T11:57:24.597Z,44.35
2022-12-25T12:00:28.287Z,50.65
2022-12-25T12:03:38.866Z,49.55
2022-12-25T12:06:54.547Z,45.80
2022-12-25T12:10:15.716Z,57.53
2022-12-25T12:14:02.765Z,70.55
2022-12-25T12:17:05.497Z,58.92
2022-12-25T12:20:31.429Z,65.10
2022-12-25T12:24:17.590Z,61.83
2022-12-25T12:27:20.062Z,63.70
2022-12-25T12:30:28.803Z,82.57
2022-12-25T12:33:35.789Z,73.68
2022-12-25T12:36:38.095Z,62.90
2022-12-25T12:39:41.552Z,74.43
2022-12-25T12:42:50.634Z,51.55
2022-12-25T12:46:06.685Z,81.22
2022-12-25T12:49:11.800Z,86.10
2022-12-25T12:52:31.060Z,80.00
2022-12-25T12:55:35.702Z,61.53
2022-12-25T12:58:45.324Z,80.28
2022-12-25T13:02:03.059Z,60.15
2022-12-25T13:05:45.425Z,71.22
2022-12-25T13:09:12.405Z,63.30
2022-12-25T13:12:15.383Z,84.13
2022-12-25T13:15:27.183Z,94.78
2022-12-25T13:18:34.162Z,83.18
2022-12-25T13:21:37.219Z,67.80
2022-12-25T13:24:40.107Z,117.50
2022-12-25T13:27:42.816Z,60.67
2022-12-25T13:30:47.262Z,69.45
2022-12-25T13:33:51.246Z,61.92
2022-12-25T13:40:07.211Z,71.53
2022-12-25T13:43:11.398Z,76.73
2022-12-25T13:46:15.950Z,68.45
2022-12-25T13:49:31.575Z,81.95
2022-12-25T13:52:38.815Z,75.88
2022-12-25T13:55:42.720Z,75.15
2022-12-25T13:58:47.431Z,113.63
2022-12-25T14:01:51.505Z,98.28
2022-12-25T14:07:58.361Z,119.63
2022-12-25T14:11:06.362Z,76.20
2022-12-25T14:14:35.678Z,78.18
2022-12-25T14:17:38.198Z,87.65
2022-12-25T14:20:42.835Z,137.68
2022-12-25T14:23:47.656Z,96.65
2022-12-25T14:27:03.904Z,109.90
2022-12-25T14:30:13.360Z,159.18
2022-12-25T14:33:19.893Z,101.63
2022-12-25T14:36:22.648Z,116.60
2022-12-25T14:39:31.053Z,147.35
2022-12-25T14:42:35.655Z,236.90
2022-12-25T14:45:38.910Z,367.17
2022-12-25T14:48:41.402Z,123.35
2022-12-25T14:51:44.316Z,109.35
2022-12-25T14:54:59.120Z,176.13
2022-12-25T14:58:06.452Z,145.23
2022-12-25T15:01:20.865Z,100.60
2022-12-25T15:04:23.985Z,111.53
2022-12-25T15:07:31.136Z,133.05
2022-12-25T15:13:56.744Z,140.27
2022-12-25T15:17:01.594Z,310.58
2022-12-25T15:20:04.353Z,181.50
2022-12-25T15:23:22.324Z,329.23
2022-12-25T15:26:26.227Z,215.25
2022-12-25T15:32:51.655Z,193.55
2022-12-25T15:35:54.322Z,140.30
2022-12-25T15:38:56.818Z,209.00
2022-12-25T15:42:12.145Z,149.32
2022-12-25T15:45:22.847Z,350.52
2022-12-25T15:48:25.228Z,201.27
2022-12-25T15:51:27.777Z,226.23
2022-12-25T15:54:31.416Z,292.10
2022-12-25T15:57:35.211Z,224.27
2022-12-25T16:00:37.487Z,279.88
2022-12-25T16:03:39.828Z,588.90
2022-12-25T16:06:42.377Z,381.95
2022-12-25T16:09:45.295Z,182.90
2022-12-25T16:12:47.894Z,152.90
2022-12-25T16:15:50.533Z,141.15
2022-12-25T16:18:52.882Z,119.55
2022-12-25T16:21:55.995Z,111.38
2022-12-25T16:24:58.458Z,129.43
2022-12-25T16:28:03.219Z,114.53
2022-12-25T16:31:05.679Z,115.22
2022-12-25T16:34:08.758Z,131.65
2022-12-25T16:37:11.344Z,92.90
2022-12-25T16:40:13.917Z,201.50
2022-12-25T16:43:21.964Z,392.80
2022-12-25T16:46:26.438Z,284.30
2022-12-25T16:49:28.876Z,217.52
2022-12-25T16:52:32.889Z,142.52
2022-12-25T16:55:36.899Z,132.70
2022-12-25T17:01:45.274Z,173.00
2022-12-25T17:04:48.421Z,180.30
2022-12-25T17:07:51.649Z,229.82
2022-12-25T17:10:54.113Z,156.07
2022-12-25T17:13:58.791Z,241.70
2022-12-25T17:17:01.387Z,177.38
2022-12-25T17:20:04.899Z,172.00
2022-12-25T17:23:07.356Z,127.30
2022-12-25T17:26:09.894Z,115.03
2022-12-25T17:29:17.095Z,128.32
2022-12-25T17:32:22.631Z,115.60
2022-12-25T17:35:25.157Z,131.75
2022-12-25T17:38:29.856Z,108.30
2022-12-25T17:41:33.493Z,108.35
2022-12-25T17:44:36.330Z,98.70
2022-12-25T17:47:38.742Z,90.60
2022-12-25T17:50:41.782Z,141.70
2022-12-25T17:53:47.048Z,82.25
2022-12-25T17:56:49.642Z,94.88
2022-12-25T17:59:52.065Z,139.50
2022-12-25T18:02:54.672Z,134.82
2022-12-25T18:06:00.672Z,287.20
2022-12-25T18:09:06.344Z,164.48
2022-12-25T18:12:09.521Z,132.73
2022-12-25T18:15:13.703Z,140.07
2022-12-25T18:18:16.126Z,173.75
2022-12-25T18:21:19.009Z,106.38
2022-12-25T18:24:21.776Z,115.75
2022-12-25T18:27:24.695Z,114.22
2022-12-25T18:30:27.779Z,132.82
2022-12-25T18:33:30.104Z,90.47
2022-12-25T18:36:32.640Z,104.45
2022-12-25T18:39:35.157Z,134.68
2022-12-25T18:42:40.409Z,111.00
2022-12-25T18:45:43.337Z,140.98
2022-12-25T18:48:46.420Z,330.65
2022-12-25T18:51:49.645Z,105.20
2022-12-25T18:54:52.014Z,77.10
2022-12-25T18:57:54.905Z,207.13
2022-12-25T19:00:57.543Z,205.23
2022-12-25T19:04:04.988Z,165.30
2022-12-25T19:07:08.144Z,139.90
2022-12-25T19:10:10.807Z,129.65
2022-12-25T19:13:13.264Z,154.73
2022-12-25T19:16:15.924Z,217.98
2022-12-25T19:19:21.467Z,137.20
2022-12-25T19:22:24.080Z,134.33
2022-12-25T19:25:26.430Z,139.07
2022-12-25T19:28:31.432Z,157.38
2022-12-25T19:31:35.348Z,158.57
2022-12-25T19:34:37.954Z,156.75
2022-12-25T19:37:40.402Z,104.82
2022-12-25T19:41:00.568Z,142.98
2022-12-25T19:44:03.924Z,108.90
2022-12-25T19:47:06.401Z,72.65
2022-12-25T19:50:09.187Z,95.82
2022-12-25T19:53:11.530Z,98.35
2022-12-25T19:56:14.741Z,111.50
2022-12-25T19:59:17.100Z,106.50
2022-12-25T20:02:19.624Z,105.90
2022-12-25T20:05:22.075Z,108.78
2022-12-25T20:08:24.800Z,122.30
2022-12-25T20:11:29.177Z,109.72
2022-12-25T20:14:31.512Z,123.30
2022-12-25T20:17:33.891Z,105.13
2022-12-25T20:20:36.476Z,104.85
2022-12-25T20:23:39.091Z,106.78
2022-12-25T20:26:43.555Z,91.50
2022-12-25T20:29:49.057Z,112.97
2022-12-25T20:32:51.493Z,113.68
2022-12-25T20:35:55.248Z,83.93
2022-12-25T20:38:57.738Z,108.13
2022-12-25T20:42:00.343Z,106.82
2022-12-25T20:45:02.991Z,113.50
2022-12-25T20:48:05.510Z,98.75
2022-12-25T20:51:19.651Z,85.13
2022-12-25T20:54:21.971Z,99.18
2022-12-25T20:57:24.401Z,99.55
2022-12-25T21:00:26.792Z,77.15
2022-12-25T21:03:29.338Z,79.60
2022-12-25T21:06:31.874Z,81.95
2022-12-25T21:09:34.694Z,74.90
2022-12-25T21:12:37.241Z,87.25
2022-12-25T21:15:44.855Z,86.40
2022-12-25T21:18:47.772Z,101.85
2022-12-25T21:21:51.101Z,88.38
2022-12-25T21:24:54.461Z,91.40
2022-12-25T21:27:59.236Z,88.65
2022-12-25T21:31:03.876Z,94.28
2022-12-25T21:34:06.457Z,130.40
2022-12-25T21:37:08.904Z,107.72
2022-12-25T21:40:16.352Z,92.25
2022-12-25T21:43:19.045Z,93.47
2022-12-25T21:46:21.799Z,120.03
2022-12-25T21:49:42.939Z,117.28
2022-12-25T21:52:45.293Z,88.30
2022-12-25T21:55:58.658Z,130.07
2022-12-25T21:59:02.259Z,84.43
2022-12-25T22:02:11.711Z,116.22
2022-12-25T22:05:34.391Z,118.93
2022-12-25T22:08:37.000Z,112.22
2022-12-25T22:11:58.167Z,117.07
2022-12-25T22:15:06.807Z,113.53
2022-12-25T22:18:28.341Z,96.63
2022-12-25T22:21:30.774Z,104.00
2022-12-25T22:24:33.209Z,95.53
2022-12-25T22:27:38.247Z,84.65
2022-12-25T22:30:44.424Z,92.72
2022-12-25T22:33:46.935Z,86.32
2022-12-25T22:36:49.314Z,93.47
2022-12-25T22:39:51.597Z,82.70
2022-12-25T22:42:55.656Z,82.60
2022-12-25T22:46:01.755Z,91.43
2022-12-25T22:49:04.375Z,74.72
2022-12-25T22:52:10.879Z,83.60
2022-12-25T22:55:17.247Z,85.30
2022-12-25T22:58:19.740Z,68.45
2022-12-25T23:01:22.255Z,73.70
2022-12-25T23:04:24.697Z,72.38
2022-12-25T23:07:27.068Z,77.35
2022-12-25T23:10:29.639Z,70.85
2022-12-25T23:13:51.163Z,86.20
2022-12-25T23:16:53.533Z,75.78
2022-12-25T23:20:15.873Z,71.45
2022-12-25T23:23:37.172Z,75.57
2022-12-25T23:26:39.507Z,77.82
2022-12-25T23:29:42.127Z,76.95
2022-12-25T23:32:44.700Z,78.75
2022-12-25T23:35:47.110Z,66.28
2022-12-25T23:38:49.533Z,76.53
2022-12-25T23:41:51.997Z,69.00
2022-12-25T23:44:54.598Z,70.85
2022-12-25T23:47:56.954Z,61.17
2022-12-25T23:51:05.957Z,67.18
2022-12-25T23:54:08.492Z,73.35
2022-12-25T23:57:10.885Z,71.15
